createdAt,value
2019-01-25T00:01:06.886Z,97504.21
2019-01-25T00:03:39.845Z,97501.66
2019-01-25T00:06:12.928Z,97508.02
2019-01-25T00:08:45.424Z,97507.20
2019-01-25T00:11:17.941Z,97503.02
2019-01-25T00:13:50.746Z,97504.92
2019-01-25T00:16:23.140Z,97510.17
2019-01-25T00:18:55.635Z,97510.20
2019-01-25T00:21:28.231Z,97506.61
2019-01-25T00:24:00.934Z,97513.94
2019-01-25T00:26:33.757Z,97513.91
2019-01-25T00:29:06.934Z,97513.70
2019-01-25T00:31:39.483Z,97512.80
2019-01-25T00:34:12.123Z,97515.35
2019-01-25T00:36:44.666Z,97516.27
2019-01-25T00:39:17.332Z,97517.40
2019-01-25T00:41:49.983Z,97524.50
2019-01-25T00:44:22.729Z,97519.88
2019-01-25T00:46:55.564Z,97521.23
2019-01-25T00:49:29.002Z,97525.48
2019-01-25T00:52:01.746Z,97526.33
2019-01-25T00:54:34.286Z,97526.59
2019-01-25T00:57:07.232Z,97528.14
2019-01-25T00:59:40.071Z,97530.80
2019-01-25T01:02:12.913Z,97531.16
2019-01-25T01:04:45.582Z,97532.17
2019-01-25T01:07:18.406Z,97539.75
2019-01-25T01:09:51.048Z,97535.62
2019-01-25T01:12:23.632Z,97547.67
2019-01-25T01:14:56.028Z,97549.59
2019-01-25T01:17:28.688Z,97547.34
2019-01-25T01:20:01.089Z,97553.22
2019-01-25T01:22:33.588Z,97560.61
2019-01-25T01:25:06.433Z,97551.41
2019-01-25T01:27:39.024Z,97555.11
2019-01-25T01:30:21.294Z,97557.62
2019-01-25T01:32:55.200Z,97563.06
2019-01-25T01:35:27.592Z,97564.33
2019-01-25T01:38:00.317Z,97569.11
2019-01-25T01:40:32.818Z,97567.51
2019-01-25T01:43:05.424Z,97564.33
2019-01-25T01:45:37.928Z,97567.61
2019-01-25T01:48:10.631Z,97568.43
2019-01-25T01:50:43.117Z,97573.60
2019-01-25T01:53:15.725Z,97567.38
2019-01-25T01:55:48.431Z,97573.95
2019-01-25T01:58:20.921Z,97573.56
2019-01-25T02:00:53.525Z,97570.28
2019-01-25T02:03:26.134Z,97575.92
2019-01-25T02:05:58.532Z,97574.05
2019-01-25T02:08:31.321Z,97575.84
2019-01-25T02:11:04.029Z,97577.26
2019-01-25T02:13:36.725Z,97577.53
2019-01-25T02:16:09.328Z,97569.68
2019-01-25T02:18:41.819Z,97576.27
2019-01-25T02:21:15.767Z,97577.59
2019-01-25T02:23:48.473Z,97585.45
2019-01-25T02:26:20.978Z,97583.95
2019-01-25T02:28:53.486Z,97581.59
2019-01-25T02:31:25.884Z,97587.91
2019-01-25T02:33:58.292Z,97585.80
2019-01-25T02:36:30.796Z,97589.23
2019-01-25T02:39:03.409Z,97593.23
2019-01-25T02:41:36.003Z,97593.60
2019-01-25T02:44:08.076Z,97592.49
2019-01-25T02:46:40.053Z,97595.93
2019-01-25T02:49:12.070Z,97595.34
2019-01-25T02:51:44.121Z,97594.30
2019-01-25T02:54:16.432Z,97592.03
2019-01-25T02:56:48.453Z,97591.75
2019-01-25T02:59:20.487Z,97590.78
2019-01-25T03:01:52.534Z,97594.51
2019-01-25T03:04:24.552Z,97595.66
2019-01-25T03:06:56.595Z,97594.13
2019-01-25T03:09:28.641Z,97591.41
2019-01-25T03:12:00.736Z,97590.77
2019-01-25T03:14:32.776Z,97594.62
2019-01-25T03:17:05.043Z,97592.37
2019-01-25T03:19:37.125Z,97592.40
2019-01-25T03:22:10.408Z,97592.38
2019-01-25T03:24:42.496Z,97594.35
2019-01-25T03:27:14.469Z,97599.61
2019-01-25T03:29:47.263Z,97597.34
2019-01-25T03:32:19.304Z,97601.33
2019-01-25T03:34:52.216Z,97601.64
2019-01-25T03:37:28.500Z,97597.77
2019-01-25T03:40:00.596Z,97602.77
2019-01-25T03:42:40.015Z,97604.00
2019-01-25T03:45:14.029Z,97605.64
2019-01-25T03:47:48.946Z,97607.58
2019-01-25T03:50:27.440Z,97606.46
2019-01-25T03:52:59.829Z,97601.48
2019-01-25T03:55:33.888Z,97608.00
2019-01-25T03:58:06.048Z,97612.04
2019-01-25T04:00:41.393Z,97606.58
2019-01-25T04:03:15.008Z,97606.73
2019-01-25T04:05:47.031Z,97606.58
2019-01-25T04:08:19.005Z,97607.64
2019-01-25T04:10:51.202Z,97607.53
2019-01-25T04:13:23.256Z,97604.80
2019-01-25T04:15:55.601Z,97609.01
2019-01-25T04:18:27.643Z,97608.09
2019-01-25T04:21:00.236Z,97608.02
2019-01-25T04:23:32.674Z,97607.98
2019-01-25T04:26:05.109Z,97613.25
2019-01-25T04:28:37.085Z,97619.48
2019-01-25T04:31:10.070Z,97612.47
2019-01-25T04:33:42.975Z,97615.06
2019-01-25T04:36:14.992Z,97618.56
2019-01-25T04:38:46.972Z,97618.86
2019-01-25T04:41:19.064Z,97619.20
2019-01-25T04:43:51.320Z,97617.38
2019-01-25T04:46:23.330Z,97615.18
2019-01-25T04:48:55.308Z,97615.16
2019-01-25T04:51:27.327Z,97617.35
2019-01-25T04:53:59.301Z,97619.88
2019-01-25T04:56:38.137Z,97624.53
2019-01-25T04:59:10.410Z,97626.12
2019-01-25T05:01:42.508Z,97624.30
2019-01-25T05:04:14.558Z,97622.83
2019-01-25T05:06:46.567Z,97626.58
2019-01-25T05:09:18.836Z,97628.63
2019-01-25T05:11:52.940Z,97630.58
2019-01-25T05:14:25.336Z,97631.73
2019-01-25T05:16:57.692Z,97635.30
2019-01-25T05:19:39.040Z,97636.06
2019-01-25T05:22:13.467Z,97639.64
2019-01-25T05:24:45.729Z,97639.42
2019-01-25T05:27:17.816Z,97640.63
2019-01-25T05:29:57.228Z,97646.50
2019-01-25T05:32:31.148Z,97649.77
2019-01-25T05:35:03.135Z,97647.90
2019-01-25T05:37:38.918Z,97648.33
2019-01-25T05:40:14.380Z,97648.80
2019-01-25T05:42:49.097Z,97655.18
2019-01-25T05:45:22.980Z,97650.08
2019-01-25T05:47:56.357Z,97657.83
2019-01-25T05:50:30.242Z,97655.98
2019-01-25T05:53:04.380Z,97652.39
2019-01-25T05:55:36.530Z,97655.48
2019-01-25T05:58:09.520Z,97659.02
2019-01-25T06:00:42.790Z,97656.96
2019-01-25T06:03:19.380Z,97660.12
2019-01-25T06:05:52.829Z,97656.79
2019-01-25T06:08:35.407Z,97665.90
2019-01-25T06:11:14.384Z,97666.84
2019-01-25T06:13:47.657Z,97669.89
2019-01-25T06:16:19.845Z,97670.09
2019-01-25T06:18:52.679Z,97668.32
2019-01-25T06:21:24.652Z,97671.16
2019-01-25T06:23:57.493Z,97670.56
2019-01-25T06:26:29.467Z,97674.89
2019-01-25T06:29:01.480Z,97678.78
2019-01-25T06:31:33.452Z,97674.66
2019-01-25T06:34:05.537Z,97675.09
2019-01-25T06:36:37.517Z,97683.43
2019-01-25T06:39:11.350Z,97680.92
2019-01-25T06:41:44.161Z,97679.36
2019-01-25T06:44:16.470Z,97682.80
2019-01-25T06:46:48.454Z,97682.78
2019-01-25T06:49:20.470Z,97682.88
2019-01-25T06:51:52.442Z,97688.24
2019-01-25T06:54:24.524Z,97696.16
2019-01-25T06:56:57.475Z,97692.98
2019-01-25T06:59:37.473Z,97698.55
2019-01-25T07:02:23.039Z,97704.05
2019-01-25T07:04:55.041Z,97709.65
2019-01-25T07:07:31.434Z,97715.08
2019-01-25T07:10:03.490Z,97712.20
2019-01-25T07:12:35.464Z,97711.61
2019-01-25T07:15:09.623Z,97710.20
2019-01-25T07:17:41.609Z,97719.45
2019-01-25T07:20:14.884Z,97718.36
2019-01-25T07:22:46.860Z,97723.69
2019-01-25T07:25:19.101Z,97726.14
2019-01-25T07:27:51.074Z,97728.94
2019-01-25T07:30:23.103Z,97732.09
2019-01-25T07:32:55.443Z,97735.75
2019-01-25T07:35:27.531Z,97737.50
2019-01-25T07:37:59.505Z,97735.33
2019-01-25T07:40:31.595Z,97735.08
2019-01-25T07:43:03.785Z,97738.13
2019-01-25T07:45:35.869Z,97738.96
2019-01-25T07:48:08.122Z,97743.69
2019-01-25T07:50:40.209Z,97743.69
2019-01-25T07:53:12.562Z,97746.20
2019-01-25T07:55:44.694Z,97743.42
2019-01-25T07:58:16.761Z,97742.50
2019-01-25T08:00:48.936Z,97742.02
2019-01-25T08:03:20.906Z,97744.39
2019-01-25T08:05:52.978Z,97744.27
2019-01-25T08:08:25.002Z,97756.35
2019-01-25T08:10:57.117Z,97751.83
2019-01-25T08:13:29.264Z,97749.78
2019-01-25T08:16:01.390Z,97748.35
2019-01-25T08:18:33.411Z,97752.13
2019-01-25T08:21:05.488Z,97757.84
2019-01-25T08:23:37.553Z,97758.72
2019-01-25T08:26:09.744Z,97760.41
2019-01-25T08:28:41.797Z,97759.73
2019-01-25T08:31:13.981Z,97758.37
2019-01-25T08:33:46.032Z,97764.28
2019-01-25T08:36:18.168Z,97762.05
2019-01-25T08:38:50.218Z,97766.09
2019-01-25T08:41:22.336Z,97762.96
2019-01-25T08:43:54.361Z,97769.92
2019-01-25T08:46:26.443Z,97770.95
2019-01-25T08:48:58.510Z,97769.72
2019-01-25T08:51:30.609Z,97775.09
2019-01-25T08:54:02.569Z,97772.78
2019-01-25T08:56:34.785Z,97776.05
2019-01-25T08:59:07.143Z,97769.04
2019-01-25T09:01:39.236Z,97772.56
2019-01-25T09:04:11.384Z,97777.59
2019-01-25T09:06:43.392Z,97781.36
2019-01-25T09:09:15.415Z,97781.76
2019-01-25T09:11:47.493Z,97786.62
2019-01-25T09:14:19.477Z,97790.58
2019-01-25T09:16:51.486Z,97790.91
2019-01-25T09:19:23.472Z,97794.61
2019-01-25T09:21:55.490Z,97796.27
2019-01-25T09:24:27.467Z,97797.61
2019-01-25T09:26:59.465Z,97808.98
2019-01-25T09:29:31.446Z,97810.85
2019-01-25T09:32:03.458Z,97815.23
2019-01-25T09:34:35.450Z,97814.80
2019-01-25T09:37:07.461Z,97816.95
2019-01-25T09:39:39.515Z,97808.83
2019-01-25T09:42:11.525Z,97817.98
2019-01-25T09:44:43.497Z,97818.72
2019-01-25T09:47:15.512Z,97818.55
2019-01-25T09:49:47.557Z,97816.61
2019-01-25T09:52:19.562Z,97815.50
2019-01-25T09:54:51.540Z,97816.30
2019-01-25T09:57:24.708Z,97819.59
2019-01-25T09:59:56.712Z,97817.95
2019-01-25T10:02:28.782Z,97814.13
2019-01-25T10:05:00.745Z,97811.91
2019-01-25T10:07:32.755Z,97810.72
2019-01-25T10:10:05.106Z,97802.92
2019-01-25T10:12:43.283Z,97790.53
2019-01-25T10:15:14.901Z,97793.97
2019-01-25T10:17:47.084Z,97784.28
2019-01-25T10:20:20.277Z,97779.81
2019-01-25T10:22:52.376Z,97791.64
2019-01-25T10:25:24.433Z,97796.24
2019-01-25T10:27:56.440Z,97795.56
2019-01-25T10:30:28.930Z,97796.30
2019-01-25T10:33:01.030Z,97789.77
2019-01-25T10:35:33.172Z,97788.05
2019-01-25T10:38:05.388Z,97803.84
2019-01-25T10:40:37.438Z,97800.49
2019-01-25T10:43:09.603Z,97794.78
2019-01-25T10:45:42.538Z,97794.68
2019-01-25T10:48:14.554Z,97788.78
2019-01-25T10:50:46.599Z,97792.78
2019-01-25T10:53:18.632Z,97798.09
2019-01-25T10:55:50.696Z,97797.55
2019-01-25T10:58:23.505Z,97792.36
2019-01-25T11:00:55.548Z,97796.31
2019-01-25T11:03:27.619Z,97791.88
2019-01-25T11:05:59.598Z,97784.00
2019-01-25T11:08:32.906Z,97787.09
2019-01-25T11:11:06.063Z,97786.03
2019-01-25T11:13:38.137Z,97771.70
2019-01-25T11:16:11.978Z,97771.55
2019-01-25T11:18:43.835Z,97773.56
2019-01-25T11:21:15.803Z,97768.90
2019-01-25T11:23:47.982Z,97761.58
2019-01-25T11:26:19.948Z,97767.39
2019-01-25T11:28:51.964Z,97777.48
2019-01-25T11:31:24.017Z,97778.62
2019-01-25T11:33:56.030Z,97777.47
2019-01-25T11:36:27.994Z,97779.33
2019-01-25T11:39:00.006Z,97776.25
2019-01-25T11:41:32.052Z,97776.81
2019-01-25T11:44:04.160Z,97773.92
2019-01-25T11:46:36.251Z,97785.63
2019-01-25T11:49:08.333Z,97784.08
2019-01-25T11:51:40.302Z,97786.43
2019-01-25T11:54:12.308Z,97785.86
2019-01-25T11:56:44.375Z,97786.60
2019-01-25T11:59:16.376Z,97786.44
2019-01-25T12:01:48.347Z,97781.48
2019-01-25T12:04:20.349Z,97786.53
2019-01-25T12:06:52.326Z,97785.03
2019-01-25T12:09:24.332Z,97785.19
2019-01-25T12:11:56.649Z,97786.00
2019-01-25T12:14:29.153Z,97785.11
2019-01-25T12:17:01.112Z,97772.54
2019-01-25T12:19:33.126Z,97777.19
2019-01-25T12:22:05.097Z,97777.24
2019-01-25T12:24:37.107Z,97774.97
2019-01-25T12:27:09.150Z,97776.08
2019-01-25T12:29:41.154Z,97759.76
2019-01-25T12:32:13.122Z,97755.73
2019-01-25T12:34:45.209Z,97765.22
2019-01-25T12:37:17.250Z,97768.33
2019-01-25T12:39:49.267Z,97763.79
2019-01-25T12:42:21.304Z,97763.00
2019-01-25T12:44:53.308Z,97765.56
2019-01-25T12:47:25.288Z,97772.72
2019-01-25T12:50:05.113Z,97768.74
2019-01-25T12:52:37.083Z,97768.54
2019-01-25T12:55:09.599Z,97761.42
2019-01-25T12:57:41.663Z,97767.66
2019-01-25T13:00:16.618Z,97762.83
2019-01-25T13:02:48.580Z,97757.41
2019-01-25T13:05:21.028Z,97755.42
2019-01-25T13:07:53.267Z,97757.65
2019-01-25T13:10:26.291Z,97755.45
2019-01-25T13:12:58.460Z,97760.08
2019-01-25T13:15:30.594Z,97766.37
2019-01-25T13:18:02.554Z,97762.02
2019-01-25T13:20:39.515Z,97759.52
2019-01-25T13:23:10.472Z,97755.70
2019-01-25T13:25:47.103Z,97760.27
2019-01-25T13:28:16.165Z,97759.75
2019-01-25T13:30:48.500Z,97759.61
2019-01-25T13:33:20.567Z,97760.31
2019-01-25T13:35:52.576Z,97756.27
2019-01-25T13:38:24.636Z,97766.56
2019-01-25T13:40:56.639Z,97764.01
2019-01-25T13:43:28.614Z,97766.79
2019-01-25T13:46:00.696Z,97769.54
2019-01-25T13:48:32.961Z,97767.27
2019-01-25T13:51:05.167Z,97768.20
2019-01-25T13:53:37.216Z,97776.19
2019-01-25T13:56:09.323Z,97781.48
2019-01-25T13:58:41.620Z,97782.42
2019-01-25T14:01:13.716Z,97787.87
2019-01-25T14:03:45.680Z,97798.41
2019-01-25T14:06:17.698Z,97797.28
2019-01-25T14:08:50.034Z,97798.25
2019-01-25T14:11:22.117Z,97787.94
2019-01-25T14:13:54.166Z,97788.38
2019-01-25T14:16:26.284Z,97782.48
2019-01-25T14:18:58.319Z,97780.34
2019-01-25T14:21:30.339Z,97780.19
2019-01-25T14:24:02.323Z,97775.92
2019-01-25T14:26:35.500Z,97781.22
2019-01-25T14:29:07.864Z,97776.55
2019-01-25T14:31:39.875Z,97780.77
2019-01-25T14:34:12.033Z,97785.41
2019-01-25T14:36:44.128Z,97773.94
2019-01-25T14:39:16.113Z,97779.98
2019-01-25T14:41:48.171Z,97778.25
2019-01-25T14:44:20.141Z,97783.12
2019-01-25T14:46:52.158Z,97782.23
2019-01-25T14:49:24.212Z,97783.78
2019-01-25T14:51:56.294Z,97781.05
2019-01-25T14:54:28.276Z,97777.50
2019-01-25T14:57:00.299Z,97782.23
2019-01-25T14:59:32.473Z,97782.81
2019-01-25T15:02:04.571Z,97787.30
2019-01-25T15:04:36.543Z,97788.29
2019-01-25T15:07:08.642Z,97792.06
2019-01-25T15:09:40.729Z,97794.59
2019-01-25T15:12:13.035Z,97799.50
2019-01-25T15:14:45.136Z,97795.77
2019-01-25T15:17:17.226Z,97800.77
2019-01-25T15:19:49.284Z,97806.53
2019-01-25T15:22:21.587Z,97820.25
2019-01-25T15:24:53.582Z,97819.69
2019-01-25T15:27:25.577Z,97818.38
2019-01-25T15:29:57.630Z,97820.08
2019-01-25T15:32:29.634Z,97816.50
2019-01-25T15:35:01.618Z,97815.61
2019-01-25T15:37:33.622Z,97811.59
2019-01-25T15:40:06.715Z,97809.51
2019-01-25T15:42:38.899Z,97801.95
2019-01-25T15:45:13.763Z,97796.92
2019-01-25T15:47:46.191Z,97787.58
2019-01-25T15:50:24.055Z,97787.77
2019-01-25T15:52:56.992Z,97790.60
2019-01-25T15:55:29.396Z,97789.52
2019-01-25T15:58:01.586Z,97792.09
2019-01-25T16:00:33.649Z,97787.41
2019-01-25T16:03:05.867Z,97781.59
2019-01-25T16:05:37.851Z,97786.76
2019-01-25T16:08:10.059Z,97788.44
2019-01-25T16:10:42.241Z,97790.17
2019-01-25T16:13:14.335Z,97790.06
2019-01-25T16:15:46.391Z,97794.12
2019-01-25T16:18:18.410Z,97797.81
2019-01-25T16:20:50.386Z,97796.28
2019-01-25T16:23:22.403Z,97801.26
2019-01-25T16:25:54.685Z,97801.63
2019-01-25T16:28:26.738Z,97802.97
2019-01-25T16:30:58.778Z,97797.84
2019-01-25T16:33:30.806Z,97801.70
2019-01-25T16:36:02.795Z,97805.36
2019-01-25T16:38:34.808Z,97803.33
2019-01-25T16:41:06.994Z,97805.84
2019-01-25T16:43:39.074Z,97818.83
2019-01-25T16:46:11.063Z,97817.01
2019-01-25T16:48:43.072Z,97815.95
2019-01-25T16:51:15.052Z,97820.39
2019-01-25T16:53:47.066Z,97817.94
2019-01-25T16:56:19.128Z,97819.12
2019-01-25T16:58:51.134Z,97817.50
2019-01-25T17:01:23.106Z,97820.71
2019-01-25T17:03:55.107Z,97820.38
2019-01-25T17:06:27.229Z,97822.89
2019-01-25T17:08:59.320Z,97825.17
2019-01-25T17:11:31.365Z,97825.58
2019-01-25T17:14:03.379Z,97819.57
2019-01-25T17:16:35.389Z,97821.63
2019-01-25T17:19:07.579Z,97825.84
2019-01-25T17:21:39.594Z,97826.72
2019-01-25T17:24:11.625Z,97825.00
2019-01-25T17:26:43.641Z,97830.97
2019-01-25T17:29:15.666Z,97827.79
2019-01-25T17:31:47.661Z,97831.73
2019-01-25T17:34:19.673Z,97820.16
2019-01-25T17:36:51.670Z,97822.05
2019-01-25T17:39:23.694Z,97823.11
2019-01-25T17:41:55.705Z,97829.84
2019-01-25T17:44:27.797Z,97831.44
2019-01-25T17:46:59.797Z,97828.37
2019-01-25T17:49:31.818Z,97821.58
2019-01-25T17:52:04.924Z,97826.05
2019-01-25T17:54:36.935Z,97827.52
2019-01-25T17:57:08.946Z,97823.75
2019-01-25T17:59:41.328Z,97828.15
2019-01-25T18:02:13.447Z,97827.38
2019-01-25T18:04:45.459Z,97829.25
2019-01-25T18:07:17.477Z,97831.44
2019-01-25T18:09:49.501Z,97830.46
2019-01-25T18:12:22.963Z,97835.09
2019-01-25T18:14:55.052Z,97831.81
2019-01-25T18:17:27.167Z,97821.91
2019-01-25T18:19:59.259Z,97825.18
2019-01-25T18:22:31.268Z,97827.31
2019-01-25T18:25:03.280Z,97829.20
2019-01-25T18:27:35.311Z,97838.11
2019-01-25T18:30:18.793Z,97832.03
2019-01-25T18:32:50.902Z,97827.58
2019-01-25T18:35:23.356Z,97822.77
2019-01-25T18:37:55.514Z,97827.71
2019-01-25T18:40:27.546Z,97830.09
2019-01-25T18:42:59.621Z,97823.89
2019-01-25T18:45:31.636Z,97829.73
2019-01-25T18:48:04.777Z,97827.00
2019-01-25T18:50:36.894Z,97819.47
2019-01-25T18:53:08.979Z,97819.34
2019-01-25T18:55:41.147Z,97813.12
2019-01-25T18:58:13.148Z,97819.09
2019-01-25T19:00:45.164Z,97830.41
2019-01-25T19:03:17.243Z,97828.38
2019-01-25T19:05:49.272Z,97820.16
2019-01-25T19:08:21.290Z,97809.56
2019-01-25T19:10:53.739Z,97803.36
2019-01-25T19:13:25.751Z,97801.25
2019-01-25T19:15:57.760Z,97796.31
2019-01-25T19:18:29.776Z,97798.52
2019-01-25T19:21:01.886Z,97801.31
2019-01-25T19:23:33.893Z,97804.78
2019-01-25T19:26:06.014Z,97806.47
2019-01-25T19:28:38.017Z,97797.15
2019-01-25T19:31:10.150Z,97785.83
2019-01-25T19:33:42.237Z,97779.57
2019-01-25T19:36:14.342Z,97774.30
2019-01-25T19:38:46.347Z,97773.16
2019-01-25T19:41:18.362Z,97774.37
2019-01-25T19:43:50.459Z,97771.55
2019-01-25T19:46:22.491Z,97768.89
2019-01-25T19:48:57.032Z,97777.89
2019-01-25T19:51:29.229Z,97776.34
2019-01-25T19:54:01.425Z,97769.58
2019-01-25T19:56:35.609Z,97778.34
2019-01-25T19:59:10.704Z,97781.05
2019-01-25T20:01:46.059Z,97774.69
2019-01-25T20:04:18.171Z,97770.38
2019-01-25T20:06:50.203Z,97782.31
2019-01-25T20:09:22.284Z,97780.81
2019-01-25T20:11:54.340Z,97771.37
2019-01-25T20:14:30.484Z,97777.55
2019-01-25T20:17:02.926Z,97785.08
2019-01-25T20:19:34.942Z,97781.58
2019-01-25T20:22:08.159Z,97780.31
2019-01-25T20:24:40.259Z,97789.53
2019-01-25T20:27:12.292Z,97786.90
2019-01-25T20:29:44.418Z,97787.92
2019-01-25T20:32:16.511Z,97781.77
2019-01-25T20:34:48.521Z,97779.21
2019-01-25T20:37:20.623Z,97770.55
2019-01-25T20:39:52.633Z,97776.61
2019-01-25T20:42:25.598Z,97778.98
2019-01-25T20:44:57.609Z,97774.27
2019-01-25T20:47:29.768Z,97774.50
2019-01-25T20:50:01.888Z,97765.88
2019-01-25T20:52:34.940Z,97774.50
2019-01-25T20:55:08.419Z,97770.63
2019-01-25T20:57:40.539Z,97763.62
2019-01-25T21:00:22.983Z,97753.95
2019-01-25T21:02:55.025Z,97748.60
2019-01-25T21:05:27.032Z,97743.37
2019-01-25T21:07:59.384Z,97732.95
2019-01-25T21:10:31.767Z,97730.26
2019-01-25T21:13:05.379Z,97731.44
2019-01-25T21:15:37.530Z,97729.84
2019-01-25T21:18:09.719Z,97728.58
2019-01-25T21:20:45.518Z,97722.71
2019-01-25T21:23:17.806Z,97725.00
2019-01-25T21:25:49.917Z,97716.66
2019-01-25T21:28:22.030Z,97714.23
2019-01-25T21:30:54.123Z,97715.63
2019-01-25T21:33:26.774Z,97715.16
2019-01-25T21:35:58.942Z,97715.28
2019-01-25T21:38:30.961Z,97712.91
2019-01-25T21:41:02.978Z,97707.87
2019-01-25T21:43:34.975Z,97703.55
2019-01-25T21:46:07.104Z,97697.97
2019-01-25T21:48:39.115Z,97701.52
2019-01-25T21:51:11.131Z,97703.25
2019-01-25T21:53:43.137Z,97693.52
2019-01-25T21:56:15.156Z,97694.06
2019-01-25T21:58:47.172Z,97696.73
2019-01-25T22:01:19.394Z,97696.34
2019-01-25T22:03:51.404Z,97689.45
2019-01-25T22:06:23.662Z,97680.33
2019-01-25T22:08:55.910Z,97678.08
2019-01-25T22:11:28.123Z,97677.60
2019-01-25T22:14:00.134Z,97676.82
2019-01-25T22:16:32.504Z,97678.98
2019-01-25T22:19:04.614Z,97676.64
2019-01-25T22:21:36.973Z,97674.48
2019-01-25T22:24:09.094Z,97663.21
2019-01-25T22:26:41.094Z,97662.72
2019-01-25T22:29:13.362Z,97666.88
2019-01-25T22:31:45.364Z,97661.43
2019-01-25T22:34:18.146Z,97664.19
2019-01-25T22:36:50.331Z,97658.45
2019-01-25T22:39:22.353Z,97649.36
2019-01-25T22:41:54.353Z,97646.27
2019-01-25T22:44:26.344Z,97643.44
2019-01-25T22:46:58.353Z,97644.83
2019-01-25T22:49:30.372Z,97636.52
2019-01-25T22:52:02.369Z,97636.63
2019-01-25T22:54:34.398Z,97636.49
2019-01-25T22:57:06.641Z,97629.59
2019-01-25T22:59:38.772Z,97628.97
2019-01-25T23:02:11.310Z,97616.50
2019-01-25T23:05:21.030Z,97617.69
2019-01-25T23:07:53.101Z,97614.63
2019-01-25T23:10:25.560Z,97611.96
2019-01-25T23:12:57.558Z,97611.72
2019-01-25T23:15:29.583Z,97616.26
2019-01-25T23:18:01.801Z,97616.60
2019-01-25T23:20:34.114Z,97616.56
2019-01-25T23:23:06.197Z,97608.15
2019-01-25T23:25:38.208Z,97601.98
2019-01-25T23:28:10.306Z,97603.08
2019-01-25T23:30:42.323Z,97601.02
2019-01-25T23:33:14.415Z,97601.45
2019-01-25T23:35:46.444Z,97592.30
2019-01-25T23:38:18.507Z,97585.60
2019-01-25T23:40:50.586Z,97585.28
2019-01-25T23:43:22.666Z,97595.06
2019-01-25T23:45:55.210Z,97587.30
2019-01-25T23:48:27.284Z,97583.88
2019-01-25T23:50:59.391Z,97583.98
2019-01-25T23:53:31.398Z,97582.25
2019-01-25T23:56:03.397Z,97577.83
2019-01-25T23:58:35.362Z,97573.99
